createdAt,value
2022-08-25T00:01:52.650Z,96120.16
2022-08-25T00:04:23.171Z,96116.88
2022-08-25T00:06:51.255Z,96120.00
2022-08-25T00:09:21.411Z,96116.63
2022-08-25T00:11:49.483Z,96117.25
2022-08-25T00:14:21.015Z,96115.72
2022-08-25T00:16:48.490Z,96116.97
2022-08-25T00:19:20.819Z,96109.16
2022-08-25T00:21:48.586Z,96115.72
2022-08-25T00:24:17.800Z,96107.63
2022-08-25T00:26:49.748Z,96110.44
2022-08-25T00:29:17.705Z,96112.28
2022-08-25T00:31:45.500Z,96112.91
2022-08-25T00:34:16.969Z,96122.72
2022-08-25T00:36:44.936Z,96124.53
2022-08-25T00:39:12.046Z,96125.91
2022-08-25T00:41:42.378Z,96125.31
2022-08-25T00:44:12.620Z,96126.19
2022-08-25T00:46:44.167Z,96116.91
2022-08-25T00:49:22.474Z,96117.38
2022-08-25T00:52:21.579Z,96112.56
2022-08-25T00:55:07.956Z,96124.09
2022-08-25T00:57:40.325Z,96118.19
2022-08-25T01:00:13.854Z,96123.50
2022-08-25T01:02:41.125Z,96116.00
2022-08-25T01:05:08.876Z,96120.88
2022-08-25T01:07:37.277Z,96121.31
2022-08-25T01:10:07.835Z,96120.06
2022-08-25T01:12:37.346Z,96118.69
2022-08-25T01:15:06.329Z,96112.28
2022-08-25T01:17:50.090Z,96111.06
2022-08-25T01:20:19.816Z,96114.16
2022-08-25T01:22:54.985Z,96117.91
2022-08-25T01:25:25.370Z,96114.44
2022-08-25T01:27:52.733Z,96119.78
2022-08-25T01:30:19.865Z,96112.78
2022-08-25T01:32:47.074Z,96110.44
2022-08-25T01:35:14.207Z,96116.38
2022-08-25T01:37:41.538Z,96120.25
2022-08-25T01:40:09.341Z,96117.28
2022-08-25T01:43:00.848Z,96122.56
2022-08-25T01:45:28.847Z,96117.16
2022-08-25T01:47:56.802Z,96121.81
2022-08-25T01:50:24.546Z,96119.47
2022-08-25T01:52:56.304Z,96121.28
2022-08-25T01:55:23.485Z,96126.56
2022-08-25T01:57:50.623Z,96122.81
2022-08-25T02:00:19.847Z,96128.75
2022-08-25T02:02:46.842Z,96120.06
2022-08-25T02:05:23.318Z,96120.38
2022-08-25T02:07:50.990Z,96118.66
2022-08-25T02:10:18.198Z,96120.34
2022-08-25T02:12:45.352Z,96120.66
2022-08-25T02:15:12.615Z,96117.53
2022-08-25T02:17:39.826Z,96116.44
2022-08-25T02:20:10.941Z,96114.44
2022-08-25T02:22:38.100Z,96094.16
2022-08-25T02:25:06.365Z,96111.06
2022-08-25T02:27:33.617Z,96107.66
2022-08-25T02:30:00.721Z,96100.09
2022-08-25T02:32:27.901Z,96103.19
2022-08-25T02:34:55.023Z,96104.41
2022-08-25T02:37:22.241Z,96096.97
2022-08-25T02:39:50.172Z,96103.34
2022-08-25T02:42:17.385Z,96096.56
2022-08-25T02:44:44.505Z,96097.66
2022-08-25T02:47:11.677Z,96103.25
2022-08-25T02:49:38.851Z,96099.94
2022-08-25T02:52:06.064Z,96096.16
2022-08-25T02:54:33.197Z,96095.09
2022-08-25T02:57:00.369Z,96095.97
2022-08-25T02:59:27.445Z,96091.78
2022-08-25T03:01:54.632Z,96091.28
2022-08-25T03:04:22.123Z,96092.41
2022-08-25T03:06:49.438Z,96083.44
2022-08-25T03:09:16.683Z,96083.31
2022-08-25T03:11:43.926Z,96079.47
2022-08-25T03:14:11.097Z,96064.84
2022-08-25T03:16:38.270Z,96064.94
2022-08-25T03:19:06.039Z,96073.09
2022-08-25T03:21:33.344Z,96067.56
2022-08-25T03:24:01.032Z,96064.97
2022-08-25T03:26:47.055Z,96069.34
2022-08-25T03:29:14.326Z,96067.00
2022-08-25T03:31:44.651Z,96055.47
2022-08-25T03:34:13.819Z,96057.78
2022-08-25T03:36:40.915Z,96056.72
2022-08-25T03:39:08.444Z,96066.09
2022-08-25T03:41:35.865Z,96059.84
2022-08-25T03:44:05.005Z,96064.44
2022-08-25T03:46:35.381Z,96074.38
2022-08-25T03:49:04.207Z,96075.28
2022-08-25T03:51:34.817Z,96074.25
2022-08-25T03:54:03.132Z,96077.16
2022-08-25T03:56:31.198Z,96078.72
2022-08-25T03:58:58.878Z,96076.94
2022-08-25T04:01:26.979Z,96076.41
2022-08-25T04:03:54.597Z,96079.38
2022-08-25T04:06:22.363Z,96071.25
2022-08-25T04:08:52.544Z,96070.75
2022-08-25T04:11:23.113Z,96070.66
2022-08-25T04:13:51.855Z,96068.47
2022-08-25T04:16:22.877Z,96075.28
2022-08-25T04:18:52.453Z,96082.22
2022-08-25T04:21:21.048Z,96084.78
2022-08-25T04:23:49.625Z,96085.22
2022-08-25T04:26:21.279Z,96088.19
2022-08-25T04:28:49.427Z,96074.91
2022-08-25T04:31:18.456Z,96083.03
2022-08-25T04:33:47.921Z,96079.25
2022-08-25T04:36:16.843Z,96081.97
2022-08-25T04:38:45.019Z,96073.94
2022-08-25T04:41:13.816Z,96066.31
2022-08-25T04:43:42.620Z,96065.84
2022-08-25T04:46:22.511Z,96064.03
2022-08-25T04:48:51.769Z,96065.28
2022-08-25T04:51:20.361Z,96062.13
2022-08-25T04:53:47.367Z,96060.22
2022-08-25T04:56:17.615Z,96054.44
2022-08-25T04:58:47.042Z,96057.00
2022-08-25T05:01:17.530Z,96054.69
2022-08-25T05:03:46.004Z,96059.50
2022-08-25T05:06:16.245Z,96051.44
2022-08-25T05:08:46.072Z,96053.16
2022-08-25T05:11:16.561Z,96051.97
2022-08-25T05:13:50.070Z,96057.09
2022-08-25T05:16:20.782Z,96055.91
2022-08-25T05:18:48.015Z,96047.44
2022-08-25T05:21:19.094Z,96052.75
2022-08-25T05:23:46.975Z,96053.72
2022-08-25T05:26:22.015Z,96053.81
2022-08-25T05:28:53.186Z,96053.13
2022-08-25T05:31:21.752Z,96050.00
2022-08-25T05:33:49.053Z,96042.63
2022-08-25T05:36:17.179Z,96040.94
2022-08-25T05:38:44.331Z,96035.75
2022-08-25T05:41:16.017Z,96037.28
2022-08-25T05:43:46.665Z,96033.00
2022-08-25T05:46:14.761Z,96038.72
2022-08-25T05:48:42.397Z,96037.56
2022-08-25T05:51:10.904Z,96035.47
2022-08-25T05:53:41.393Z,96029.50
2022-08-25T05:56:08.970Z,96035.88
2022-08-25T05:58:37.583Z,96033.69
2022-08-25T06:01:23.711Z,96032.91
2022-08-25T06:03:54.472Z,96034.41
2022-08-25T06:06:24.298Z,96022.59
2022-08-25T06:08:51.834Z,96026.38
2022-08-25T06:11:19.367Z,96024.75
2022-08-25T06:13:46.570Z,96018.00
2022-08-25T06:16:13.787Z,96001.81
2022-08-25T06:18:40.997Z,96014.25
2022-08-25T06:21:13.232Z,96022.97
2022-08-25T06:23:41.490Z,96013.66
2022-08-25T06:26:20.698Z,96013.97
2022-08-25T06:28:50.306Z,96022.34
2022-08-25T06:31:18.768Z,96021.75
2022-08-25T06:33:46.303Z,96016.75
2022-08-25T06:36:13.825Z,96016.47
2022-08-25T06:38:41.351Z,96027.03
2022-08-25T06:41:12.684Z,96024.06
2022-08-25T06:43:47.343Z,96027.63
2022-08-25T06:46:20.186Z,96027.28
2022-08-25T06:48:48.342Z,96025.84
2022-08-25T06:51:18.716Z,96026.03
2022-08-25T06:53:47.633Z,96028.81
2022-08-25T06:56:19.760Z,96040.34
2022-08-25T06:58:47.898Z,96031.28
2022-08-25T07:01:23.413Z,96035.94
2022-08-25T07:03:59.685Z,96035.63
2022-08-25T07:06:31.551Z,96038.75
2022-08-25T07:08:59.507Z,96032.31
2022-08-25T07:11:27.584Z,96038.69
2022-08-25T07:13:55.060Z,96039.44
2022-08-25T07:16:22.334Z,96038.00
2022-08-25T07:18:50.935Z,96033.16
2022-08-25T07:21:21.690Z,96028.16
2022-08-25T07:23:51.654Z,96039.22
2022-08-25T07:26:36.641Z,96033.56
2022-08-25T07:29:13.933Z,96035.16
2022-08-25T07:31:41.169Z,96040.25
2022-08-25T07:34:28.510Z,96040.03
2022-08-25T07:36:56.980Z,96034.34
2022-08-25T07:39:25.107Z,96033.41
2022-08-25T07:41:53.168Z,96039.00
2022-08-25T07:44:22.558Z,96036.44
2022-08-25T07:46:50.565Z,96036.19
2022-08-25T07:49:23.260Z,96041.44
2022-08-25T07:52:05.437Z,96045.72
2022-08-25T07:54:35.579Z,96041.25
2022-08-25T07:57:07.744Z,96046.69
2022-08-25T07:59:40.118Z,96043.31
2022-08-25T08:02:17.966Z,96055.25
2022-08-25T08:04:51.242Z,96048.09
2022-08-25T08:07:41.875Z,96049.28
2022-08-25T08:13:00.895Z,96044.16
2022-08-25T08:15:29.715Z,96040.41
2022-08-25T08:17:57.906Z,96043.97
2022-08-25T08:20:25.699Z,96040.78
2022-08-25T08:22:52.893Z,96043.28
2022-08-25T08:25:21.415Z,96039.63
2022-08-25T08:27:50.775Z,96032.91
2022-08-25T08:30:23.823Z,96022.50
2022-08-25T08:33:11.274Z,96024.91
2022-08-25T08:35:41.064Z,96024.38
2022-08-25T08:38:14.859Z,96021.94
2022-08-25T08:41:23.091Z,96022.59
2022-08-25T08:43:56.315Z,96025.50
2022-08-25T08:46:25.934Z,96019.59
2022-08-25T08:49:02.580Z,96017.06
2022-08-25T08:51:53.225Z,96019.69
2022-08-25T08:54:27.842Z,96017.25
2022-08-25T08:57:04.217Z,96008.00
2022-08-25T08:59:41.841Z,96008.50
2022-08-25T09:02:38.513Z,96013.44
2022-08-25T09:05:09.723Z,96013.84
2022-08-25T09:07:44.937Z,96021.47
2022-08-25T09:10:17.325Z,96023.47
2022-08-25T09:13:20.289Z,96028.69
2022-08-25T09:16:20.405Z,96021.13
2022-08-25T09:19:34.379Z,96019.72
2022-08-25T09:22:36.409Z,96024.16
2022-08-25T09:25:29.494Z,96027.97
2022-08-25T09:28:08.150Z,96016.72
2022-08-25T09:31:12.148Z,96011.06
2022-08-25T09:33:39.596Z,96011.44
2022-08-25T09:36:09.050Z,96013.78
2022-08-25T09:38:37.045Z,96012.25
2022-08-25T09:41:07.181Z,96017.16
2022-08-25T09:43:42.069Z,96016.09
2022-08-25T09:46:23.553Z,96008.41
2022-08-25T09:48:57.115Z,96005.22
2022-08-25T09:51:26.545Z,96005.53
2022-08-25T09:54:02.205Z,95999.34
2022-08-25T09:56:49.695Z,96003.06
2022-08-25T09:59:37.362Z,95999.47
2022-08-25T10:02:23.840Z,95994.63
2022-08-25T10:04:52.230Z,95999.59
2022-08-25T10:07:30.382Z,95991.19
2022-08-25T10:10:03.512Z,95996.06
2022-08-25T10:12:42.659Z,95985.31
2022-08-25T10:15:29.868Z,95979.53
2022-08-25T10:18:26.025Z,95978.69
2022-08-25T10:21:20.058Z,95970.38
2022-08-25T10:23:53.383Z,95970.22
2022-08-25T10:26:39.513Z,95969.47
2022-08-25T10:29:32.529Z,95953.34
2022-08-25T10:32:16.328Z,95969.69
2022-08-25T10:34:51.637Z,95964.66
2022-08-25T10:37:36.622Z,95967.13
2022-08-25T10:40:22.440Z,95969.03
2022-08-25T10:43:17.443Z,95961.19
2022-08-25T10:45:59.180Z,95950.22
2022-08-25T10:48:57.960Z,95952.00
2022-08-25T10:51:46.736Z,95952.22
2022-08-25T10:54:23.913Z,95958.19
2022-08-25T10:57:07.159Z,95941.72
2022-08-25T11:00:05.163Z,95948.78
2022-08-25T11:02:44.551Z,95944.91
2022-08-25T11:05:24.656Z,95938.50
2022-08-25T11:08:01.041Z,95939.81
2022-08-25T11:11:00.227Z,95929.38
2022-08-25T11:13:50.441Z,95929.31
2022-08-25T11:16:27.016Z,95929.09
2022-08-25T11:19:02.607Z,95931.53
2022-08-25T11:21:54.577Z,95925.34
2022-08-25T11:24:26.569Z,95925.22
2022-08-25T11:26:57.365Z,95903.34
2022-08-25T11:29:31.213Z,95911.59
2022-08-25T11:32:00.933Z,95907.84
2022-08-25T11:34:32.789Z,95902.75
2022-08-25T11:37:07.803Z,95903.81
2022-08-25T11:40:18.950Z,95894.81
2022-08-25T11:42:57.521Z,95906.66
2022-08-25T11:45:46.750Z,95901.00
2022-08-25T11:48:28.316Z,95896.63
2022-08-25T11:51:05.175Z,95893.75
2022-08-25T11:53:42.826Z,95905.13
2022-08-25T11:56:33.158Z,95901.28
2022-08-25T11:59:02.343Z,95893.81
2022-08-25T12:01:44.599Z,95895.34
2022-08-25T12:04:31.700Z,95888.91
2022-08-25T12:07:10.999Z,95885.53
2022-08-25T12:09:50.046Z,95889.19
2022-08-25T12:12:56.983Z,95883.50
2022-08-25T12:15:42.274Z,95879.66
2022-08-25T12:18:23.348Z,95880.16
2022-08-25T12:20:54.978Z,95871.63
2022-08-25T12:23:45.071Z,95864.97
2022-08-25T12:26:21.415Z,95873.41
2022-08-25T12:29:10.451Z,95862.34
2022-08-25T12:32:11.834Z,95865.47
2022-08-25T12:34:41.779Z,95867.75
2022-08-25T12:37:23.933Z,95850.06
2022-08-25T12:39:51.478Z,95863.63
2022-08-25T12:42:29.410Z,95875.66
2022-08-25T12:45:23.566Z,95853.88
2022-08-25T12:47:54.498Z,95865.50
2022-08-25T12:50:43.283Z,95861.78
2022-08-25T12:53:28.049Z,95864.09
2022-08-25T12:56:16.457Z,95873.53
2022-08-25T12:59:02.664Z,95866.75
2022-08-25T13:01:54.967Z,95864.59
2022-08-25T13:04:42.003Z,95857.84
2022-08-25T13:07:47.570Z,95861.13
2022-08-25T13:10:45.975Z,95849.53
2022-08-25T13:13:44.509Z,95841.56
2022-08-25T13:16:28.391Z,95857.69
2022-08-25T13:18:59.007Z,95854.72
2022-08-25T13:21:41.593Z,95845.75
2022-08-25T13:24:29.615Z,95840.38
2022-08-25T13:27:01.041Z,95836.47
2022-08-25T13:29:35.072Z,95847.78
2022-08-25T13:32:09.481Z,95833.50
2022-08-25T13:34:42.570Z,95831.16
2022-08-25T13:37:29.607Z,95834.72
2022-08-25T13:40:25.891Z,95830.31
2022-08-25T13:42:56.466Z,95822.56
2022-08-25T13:45:30.062Z,95826.28
2022-08-25T13:47:59.255Z,95820.41
2022-08-25T13:50:26.872Z,95818.72
2022-08-25T13:52:56.013Z,95819.63
2022-08-25T13:55:27.433Z,95817.78
2022-08-25T13:57:58.091Z,95820.13
2022-08-25T14:00:43.181Z,95822.88
2022-08-25T14:03:37.389Z,95819.69
2022-08-25T14:06:16.407Z,95808.22
2022-08-25T14:08:46.469Z,95806.97
2022-08-25T14:11:25.383Z,95812.72
2022-08-25T14:14:01.448Z,95803.09
2022-08-25T14:16:33.327Z,95809.06
2022-08-25T14:19:04.609Z,95803.84
2022-08-25T14:21:33.829Z,95798.66
2022-08-25T14:24:01.822Z,95793.03
2022-08-25T14:26:28.985Z,95800.25
2022-08-25T14:28:57.800Z,95796.25
2022-08-25T14:31:31.612Z,95796.94
2022-08-25T14:34:04.868Z,95803.13
2022-08-25T14:36:33.978Z,95796.56
2022-08-25T14:39:08.639Z,95797.91
2022-08-25T14:41:38.898Z,95792.78
2022-08-25T14:44:06.952Z,95784.41
2022-08-25T14:46:37.111Z,95783.28
2022-08-25T14:49:07.416Z,95778.81
2022-08-25T14:51:36.214Z,95771.22
2022-08-25T14:54:07.234Z,95774.28
2022-08-25T14:56:36.154Z,95784.97
2022-08-25T14:59:04.812Z,95776.47
2022-08-25T15:01:32.604Z,95779.44
2022-08-25T15:04:13.000Z,95786.50
2022-08-25T15:06:43.747Z,95785.25
2022-08-25T15:09:16.105Z,95776.75
2022-08-25T15:11:50.641Z,95773.22
2022-08-25T15:14:28.995Z,95787.53
2022-08-25T15:17:02.018Z,95775.13
2022-08-25T15:19:29.515Z,95773.72
2022-08-25T15:21:57.970Z,95771.97
2022-08-25T15:24:28.331Z,95779.06
2022-08-25T15:27:01.377Z,95782.34
2022-08-25T15:29:30.327Z,95767.88
2022-08-25T15:32:00.543Z,95773.78
2022-08-25T15:34:28.626Z,95783.97
2022-08-25T15:36:58.311Z,95771.28
2022-08-25T15:39:27.526Z,95765.31
2022-08-25T15:41:54.728Z,95773.75
2022-08-25T15:44:29.253Z,95773.13
2022-08-25T15:46:58.757Z,95768.53
2022-08-25T15:49:26.903Z,95776.06
2022-08-25T15:51:57.013Z,95765.09
2022-08-25T15:54:26.634Z,95767.69
2022-08-25T15:56:55.769Z,95767.47
2022-08-25T15:59:25.206Z,95782.28
2022-08-25T16:01:54.032Z,95785.00
2022-08-25T16:04:23.461Z,95780.25
2022-08-25T16:06:51.898Z,95779.47
2022-08-25T16:09:22.835Z,95785.66
2022-08-25T16:11:56.619Z,95780.00
2022-08-25T16:14:26.057Z,95768.94
2022-08-25T16:16:53.176Z,95780.13
2022-08-25T16:19:29.439Z,95777.53
2022-08-25T16:21:58.082Z,95772.84
2022-08-25T16:24:25.531Z,95771.75
2022-08-25T16:26:55.537Z,95769.88
2022-08-25T16:29:23.815Z,95756.16
2022-08-25T16:31:53.291Z,95765.16
2022-08-25T16:34:24.661Z,95757.53
2022-08-25T16:36:55.859Z,95762.06
2022-08-25T16:39:23.977Z,95761.84
2022-08-25T16:41:51.915Z,95752.13
2022-08-25T16:44:22.429Z,95757.47
2022-08-25T16:46:54.210Z,95753.94
2022-08-25T16:49:24.195Z,95753.81
2022-08-25T16:51:57.152Z,95756.31
2022-08-25T16:54:44.933Z,95752.84
2022-08-25T16:57:12.280Z,95749.56
2022-08-25T16:59:39.489Z,95745.72
2022-08-25T17:02:06.765Z,95746.22
2022-08-25T17:04:33.971Z,95748.59
2022-08-25T17:07:01.906Z,95746.97
2022-08-25T17:09:30.027Z,95744.69
2022-08-25T17:11:57.580Z,95751.06
2022-08-25T17:14:25.049Z,95747.72
2022-08-25T17:16:55.015Z,95743.94
2022-08-25T17:19:24.889Z,95743.59
2022-08-25T17:21:54.357Z,95741.31
2022-08-25T17:24:22.410Z,95746.66
2022-08-25T17:26:56.860Z,95744.66
2022-08-25T17:29:23.973Z,95744.94
2022-08-25T17:31:51.674Z,95743.44
2022-08-25T17:34:23.072Z,95744.78
2022-08-25T17:36:51.561Z,95749.59
2022-08-25T17:39:19.774Z,95750.06
2022-08-25T17:41:50.523Z,95750.63
2022-08-25T17:44:19.510Z,95749.53
2022-08-25T17:46:48.011Z,95738.63
2022-08-25T17:49:16.997Z,95739.34
2022-08-25T17:51:44.176Z,95743.38
2022-08-25T17:54:12.794Z,95741.09
2022-08-25T17:56:40.154Z,95744.78
2022-08-25T17:59:07.508Z,95745.44
2022-08-25T18:01:40.259Z,95742.47
2022-08-25T18:04:17.532Z,95747.09
2022-08-25T18:06:47.475Z,95746.63
2022-08-25T18:09:16.021Z,95753.44
2022-08-25T18:11:43.488Z,95745.09
2022-08-25T18:14:12.558Z,95749.06
2022-08-25T18:16:40.789Z,95747.91
2022-08-25T18:19:10.751Z,95749.09
2022-08-25T18:21:38.337Z,95749.59
2022-08-25T18:24:07.859Z,95743.16
2022-08-25T18:26:35.597Z,95757.25
2022-08-25T18:29:03.587Z,95754.63
2022-08-25T18:31:32.367Z,95749.31
2022-08-25T18:33:59.760Z,95760.00
2022-08-25T18:36:26.928Z,95759.50
2022-08-25T18:39:13.583Z,95750.72
2022-08-25T18:41:42.399Z,95757.53
2022-08-25T18:44:10.925Z,95753.44
2022-08-25T18:46:39.810Z,95760.13
2022-08-25T18:49:07.107Z,95752.44
2022-08-25T18:51:36.212Z,95759.88
2022-08-25T18:54:04.241Z,95758.03
2022-08-25T18:56:31.680Z,95767.56
2022-08-25T18:59:00.100Z,95761.66
2022-08-25T19:01:27.416Z,95757.00
2022-08-25T19:03:56.468Z,95767.47
2022-08-25T19:06:23.906Z,95765.81
2022-08-25T19:08:51.122Z,95766.31
2022-08-25T19:11:22.207Z,95764.19
2022-08-25T19:13:50.807Z,95760.69
2022-08-25T19:16:30.587Z,95763.16
2022-08-25T19:18:58.349Z,95769.56
2022-08-25T19:21:25.849Z,95768.19
2022-08-25T19:23:53.460Z,95763.63
2022-08-25T19:26:20.951Z,95772.91
2022-08-25T19:28:49.867Z,95771.91
2022-08-25T19:31:18.656Z,95772.91
2022-08-25T19:33:48.090Z,95771.34
2022-08-25T19:36:17.619Z,95769.84
2022-08-25T19:38:49.392Z,95775.78
2022-08-25T19:41:20.508Z,95775.97
2022-08-25T19:43:56.459Z,95768.53
2022-08-25T19:46:33.040Z,95768.47
2022-08-25T19:49:11.569Z,95768.19
2022-08-25T19:51:44.174Z,95772.91
2022-08-25T19:54:14.107Z,95767.28
2022-08-25T19:56:43.652Z,95778.59
2022-08-25T19:59:23.172Z,95784.41
2022-08-25T20:01:50.379Z,95777.31
2022-08-25T20:04:17.631Z,95775.25
2022-08-25T20:06:48.445Z,95788.97
2022-08-25T20:09:35.573Z,95781.34
2022-08-25T20:12:06.303Z,95790.06
2022-08-25T20:14:33.925Z,95779.97
2022-08-25T20:17:02.765Z,95785.59
2022-08-25T20:19:31.068Z,95781.16
2022-08-25T20:21:58.947Z,95779.69
2022-08-25T20:24:44.691Z,95783.75
2022-08-25T20:27:12.095Z,95786.97
2022-08-25T20:29:39.295Z,95787.81
2022-08-25T20:32:11.840Z,95782.56
2022-08-25T20:34:39.156Z,95792.59
2022-08-25T20:37:06.867Z,95787.84
2022-08-25T20:39:34.082Z,95787.19
2022-08-25T20:42:02.270Z,95786.66
2022-08-25T20:44:33.676Z,95788.75
2022-08-25T20:47:02.813Z,95785.88
2022-08-25T20:49:37.711Z,95794.50
2022-08-25T20:52:07.472Z,95785.47
2022-08-25T20:54:35.266Z,95794.91
2022-08-25T20:57:02.759Z,95780.91
2022-08-25T20:59:31.803Z,95792.28
2022-08-25T21:01:58.950Z,95786.00
2022-08-25T21:04:29.124Z,95778.47
2022-08-25T21:06:58.020Z,95783.00
2022-08-25T21:09:26.501Z,95791.81
2022-08-25T21:11:56.674Z,95791.84
2022-08-25T21:14:25.495Z,95784.94
2022-08-25T21:16:54.374Z,95785.75
2022-08-25T21:19:26.256Z,95790.41
2022-08-25T21:21:59.485Z,95774.50
2022-08-25T21:24:28.357Z,95787.94
2022-08-25T21:26:57.463Z,95788.56
2022-08-25T21:29:28.543Z,95786.50
2022-08-25T21:31:58.585Z,95793.63
2022-08-25T21:34:26.267Z,95792.44
2022-08-25T21:36:57.855Z,95794.91
2022-08-25T21:39:27.546Z,95800.88
2022-08-25T21:41:58.487Z,95805.16
2022-08-25T21:44:28.028Z,95808.44
2022-08-25T21:46:56.127Z,95805.56
2022-08-25T21:49:24.706Z,95799.16
2022-08-25T21:52:00.614Z,95802.00
2022-08-25T21:54:29.173Z,95803.03
2022-08-25T21:57:00.115Z,95810.00
2022-08-25T21:59:30.078Z,95802.59
2022-08-25T22:01:59.731Z,95795.41
2022-08-25T22:04:28.136Z,95807.06
2022-08-25T22:06:55.746Z,95804.03
2022-08-25T22:09:26.430Z,95802.47
2022-08-25T22:11:55.972Z,95804.44
2022-08-25T22:14:26.234Z,95805.03
2022-08-25T22:16:54.843Z,95802.50
2022-08-25T22:19:23.050Z,95799.84
2022-08-25T22:21:51.157Z,95804.94
2022-08-25T22:24:19.268Z,95805.16
2022-08-25T22:26:47.555Z,95807.81
2022-08-25T22:29:24.984Z,95799.09
2022-08-25T22:31:59.654Z,95798.69
2022-08-25T22:34:33.185Z,95799.75
2022-08-25T22:37:01.957Z,95801.72
2022-08-25T22:39:32.119Z,95798.28
2022-08-25T22:42:02.104Z,95800.41
2022-08-25T22:44:29.202Z,95797.81
2022-08-25T22:46:56.604Z,95795.66
2022-08-25T22:49:23.727Z,95790.38
2022-08-25T22:51:51.058Z,95799.88
2022-08-25T22:54:20.932Z,95794.69
2022-08-25T22:56:48.048Z,95796.91
2022-08-25T22:59:15.433Z,95800.13
2022-08-25T23:01:45.482Z,95795.00
2022-08-25T23:04:14.711Z,95789.09
2022-08-25T23:06:42.369Z,95802.88
2022-08-25T23:09:12.736Z,95794.84
2022-08-25T23:11:41.246Z,95795.13
2022-08-25T23:14:10.970Z,95788.50
2022-08-25T23:16:39.267Z,95791.91
2022-08-25T23:19:06.686Z,95794.06
2022-08-25T23:21:54.469Z,95785.94
2022-08-25T23:24:26.900Z,95792.78
2022-08-25T23:27:03.842Z,95786.97
2022-08-25T23:29:34.284Z,95779.81
2022-08-25T23:32:04.062Z,95787.38
2022-08-25T23:34:31.287Z,95792.59
2022-08-25T23:37:01.467Z,95781.47
2022-08-25T23:39:28.621Z,95781.34
2022-08-25T23:41:55.782Z,95787.34
2022-08-25T23:44:23.318Z,95784.28
2022-08-25T23:46:52.851Z,95786.59
2022-08-25T23:49:22.296Z,95788.88
2022-08-25T23:51:52.777Z,95786.38
2022-08-25T23:54:21.401Z,95775.38
2022-08-25T23:56:52.239Z,95774.66
2022-08-25T23:59:24.661Z,95774.16
